sensor_id;sensor_type;location;lat;lon;timestamp;pressure;altitude;pressure_sealevel;temperature;humidity
7532;BME280;3807;49.030;8.714;2022-08-19T00:01:50;98865.00;;;26.44;47.17
7532;BME280;3807;49.030;8.714;2022-08-19T00:04:18;98863.53;;;26.42;47.19
7532;BME280;3807;49.030;8.714;2022-08-19T00:06:47;98863.69;;;26.40;47.20
7532;BME280;3807;49.030;8.714;2022-08-19T00:09:14;98867.59;;;26.44;47.16
7532;BME280;3807;49.030;8.714;2022-08-19T00:11:41;98868.25;;;26.38;47.22
7532;BME280;3807;49.030;8.714;2022-08-19T00:14:08;98864.50;;;26.32;47.39
7532;BME280;3807;49.030;8.714;2022-08-19T00:16:35;98871.38;;;26.33;47.50
7532;BME280;3807;49.030;8.714;2022-08-19T00:19:01;98871.84;;;26.29;47.54
7532;BME280;3807;49.030;8.714;2022-08-19T00:21:26;98881.31;;;26.30;47.42
7532;BME280;3807;49.030;8.714;2022-08-19T00:23:53;98887.19;;;26.24;47.67
7532;BME280;3807;49.030;8.714;2022-08-19T00:26:19;98874.78;;;26.26;47.61
7532;BME280;3807;49.030;8.714;2022-08-19T00:28:45;98869.56;;;26.18;48.11
7532;BME280;3807;49.030;8.714;2022-08-19T00:31:11;98872.16;;;26.18;47.82
7532;BME280;3807;49.030;8.714;2022-08-19T00:33:36;98881.97;;;26.16;47.92
7532;BME280;3807;49.030;8.714;2022-08-19T00:36:05;98882.75;;;26.08;48.18
7532;BME280;3807;49.030;8.714;2022-08-19T00:38:31;98888.16;;;26.06;48.11
7532;BME280;3807;49.030;8.714;2022-08-19T00:40:57;98879.19;;;26.09;48.03
7532;BME280;3807;49.030;8.714;2022-08-19T00:43:25;98881.94;;;26.07;48.35
7532;BME280;3807;49.030;8.714;2022-08-19T00:45:51;98873.78;;;26.02;48.15
7532;BME280;3807;49.030;8.714;2022-08-19T00:48:18;98870.50;;;26.00;48.13
7532;BME280;3807;49.030;8.714;2022-08-19T00:50:45;98859.94;;;26.02;48.17
7532;BME280;3807;49.030;8.714;2022-08-19T00:53:12;98851.13;;;25.95;48.32
7532;BME280;3807;49.030;8.714;2022-08-19T00:55:40;98838.53;;;25.90;48.41
7532;BME280;3807;49.030;8.714;2022-08-19T00:58:10;98838.88;;;25.95;48.15
7532;BME280;3807;49.030;8.714;2022-08-19T01:00:37;98834.97;;;25.91;48.28
7532;BME280;3807;49.030;8.714;2022-08-19T01:03:07;98843.44;;;25.93;48.32
7532;BME280;3807;49.030;8.714;2022-08-19T01:05:33;98846.34;;;25.90;48.39
7532;BME280;3807;49.030;8.714;2022-08-19T01:08:02;98847.34;;;25.89;48.40
7532;BME280;3807;49.030;8.714;2022-08-19T01:10:31;98845.56;;;25.89;48.35
7532;BME280;3807;49.030;8.714;2022-08-19T01:12:59;98848.47;;;25.86;48.46
7532;BME280;3807;49.030;8.714;2022-08-19T01:15:30;98863.00;;;25.89;48.41
7532;BME280;3807;49.030;8.714;2022-08-19T01:17:58;98867.53;;;25.87;48.43
7532;BME280;3807;49.030;8.714;2022-08-19T01:20:25;98873.13;;;25.84;48.60
7532;BME280;3807;49.030;8.714;2022-08-19T01:22:54;98860.38;;;25.81;48.51
7532;BME280;3807;49.030;8.714;2022-08-19T01:25:22;98860.88;;;25.84;48.48
7532;BME280;3807;49.030;8.714;2022-08-19T01:27:50;98853.00;;;25.76;48.81
7532;BME280;3807;49.030;8.714;2022-08-19T01:30:20;98860.53;;;25.79;48.88
7532;BME280;3807;49.030;8.714;2022-08-19T01:32:48;98865.22;;;25.67;48.89
7532;BME280;3807;49.030;8.714;2022-08-19T01:35:14;98859.81;;;25.69;48.84
7532;BME280;3807;49.030;8.714;2022-08-19T01:38:02;98857.37;;;25.67;48.74
7532;BME280;3807;49.030;8.714;2022-08-19T01:40:30;98863.59;;;25.66;48.74
7532;BME280;3807;49.030;8.714;2022-08-19T01:42:56;98856.03;;;25.55;49.09
7532;BME280;3807;49.030;8.714;2022-08-19T01:45:24;98855.72;;;25.58;49.06
7532;BME280;3807;49.030;8.714;2022-08-19T01:47:50;98855.88;;;25.57;49.05
7532;BME280;3807;49.030;8.714;2022-08-19T01:50:15;98838.44;;;25.57;49.09
7532;BME280;3807;49.030;8.714;2022-08-19T01:52:42;98844.97;;;25.53;49.13
7532;BME280;3807;49.030;8.714;2022-08-19T01:55:14;98848.22;;;25.55;49.34
7532;BME280;3807;49.030;8.714;2022-08-19T01:57:42;98855.56;;;25.60;49.04
7532;BME280;3807;49.030;8.714;2022-08-19T02:00:11;98864.34;;;25.59;49.16
7532;BME280;3807;49.030;8.714;2022-08-19T02:02:37;98861.91;;;25.57;49.18
7532;BME280;3807;49.030;8.714;2022-08-19T02:05:03;98860.06;;;25.41;49.52
7532;BME280;3807;49.030;8.714;2022-08-19T02:07:29;98856.31;;;25.44;49.47
7532;BME280;3807;49.030;8.714;2022-08-19T02:09:54;98840.84;;;25.42;49.52
7532;BME280;3807;49.030;8.714;2022-08-19T02:12:20;98846.22;;;25.41;49.49
7532;BME280;3807;49.030;8.714;2022-08-19T02:14:46;98842.16;;;25.38;49.67
7532;BME280;3807;49.030;8.714;2022-08-19T02:17:12;98852.72;;;25.37;49.57
7532;BME280;3807;49.030;8.714;2022-08-19T02:19:37;98862.03;;;25.39;49.60
7532;BME280;3807;49.030;8.714;2022-08-19T02:22:03;98866.72;;;25.36;49.76
7532;BME280;3807;49.030;8.714;2022-08-19T02:24:29;98869.34;;;25.36;49.50
7532;BME280;3807;49.030;8.714;2022-08-19T02:26:54;98863.47;;;25.34;49.71
7532;BME280;3807;49.030;8.714;2022-08-19T02:29:19;98866.37;;;25.31;49.83
7532;BME280;3807;49.030;8.714;2022-08-19T02:31:45;98861.53;;;25.36;49.72
7532;BME280;3807;49.030;8.714;2022-08-19T02:34:10;98861.03;;;25.32;49.52
7532;BME280;3807;49.030;8.714;2022-08-19T02:36:36;98874.38;;;25.29;49.66
7532;BME280;3807;49.030;8.714;2022-08-19T02:39:02;98863.75;;;25.31;49.65
7532;BME280;3807;49.030;8.714;2022-08-19T02:41:31;98864.06;;;25.28;49.76
7532;BME280;3807;49.030;8.714;2022-08-19T02:43:58;98860.97;;;25.24;49.69
7532;BME280;3807;49.030;8.714;2022-08-19T02:46:26;98863.56;;;25.24;49.81
7532;BME280;3807;49.030;8.714;2022-08-19T02:48:54;98857.41;;;25.25;50.02
7532;BME280;3807;49.030;8.714;2022-08-19T02:51:26;98851.03;;;25.28;49.63
7532;BME280;3807;49.030;8.714;2022-08-19T02:53:52;98853.16;;;25.24;49.70
7532;BME280;3807;49.030;8.714;2022-08-19T02:56:18;98843.37;;;25.18;49.85
7532;BME280;3807;49.030;8.714;2022-08-19T02:58:44;98836.16;;;25.12;50.07
7532;BME280;3807;49.030;8.714;2022-08-19T03:01:10;98835.19;;;25.13;50.09
7532;BME280;3807;49.030;8.714;2022-08-19T03:03:36;98846.06;;;25.08;50.04
7532;BME280;3807;49.030;8.714;2022-08-19T03:06:05;98841.87;;;25.15;49.92
7532;BME280;3807;49.030;8.714;2022-08-19T03:08:31;98847.03;;;25.07;50.11
7532;BME280;3807;49.030;8.714;2022-08-19T03:10:56;98852.06;;;25.09;49.98
7532;BME280;3807;49.030;8.714;2022-08-19T03:13:22;98845.69;;;25.03;50.14
7532;BME280;3807;49.030;8.714;2022-08-19T03:15:48;98851.06;;;25.02;50.58
7532;BME280;3807;49.030;8.714;2022-08-19T03:18:14;98856.44;;;25.00;50.66
7532;BME280;3807;49.030;8.714;2022-08-19T03:20:48;98860.81;;;25.00;50.32
7532;BME280;3807;49.030;8.714;2022-08-19T03:23:14;98853.84;;;25.00;50.17
7532;BME280;3807;49.030;8.714;2022-08-19T03:25:42;98861.97;;;24.97;50.33
7532;BME280;3807;49.030;8.714;2022-08-19T03:28:10;98855.94;;;24.97;50.69
7532;BME280;3807;49.030;8.714;2022-08-19T03:30:35;98857.34;;;24.91;50.59
7532;BME280;3807;49.030;8.714;2022-08-19T03:33:01;98860.09;;;24.89;50.54
7532;BME280;3807;49.030;8.714;2022-08-19T03:35:27;98859.75;;;24.84;50.74
7532;BME280;3807;49.030;8.714;2022-08-19T03:37:53;98857.63;;;24.80;50.59
7532;BME280;3807;49.030;8.714;2022-08-19T03:40:18;98855.97;;;24.79;50.77
7532;BME280;3807;49.030;8.714;2022-08-19T03:42:44;98853.38;;;24.79;50.77
7532;BME280;3807;49.030;8.714;2022-08-19T03:45:11;98858.06;;;24.75;51.00
7532;BME280;3807;49.030;8.714;2022-08-19T03:47:36;98850.41;;;24.74;50.80
7532;BME280;3807;49.030;8.714;2022-08-19T03:50:03;98855.47;;;24.75;50.80
7532;BME280;3807;49.030;8.714;2022-08-19T03:52:29;98868.19;;;24.78;50.73
7532;BME280;3807;49.030;8.714;2022-08-19T03:54:55;98870.44;;;24.73;50.71
7532;BME280;3807;49.030;8.714;2022-08-19T03:57:20;98867.66;;;24.75;50.75
7532;BME280;3807;49.030;8.714;2022-08-19T03:59:45;98870.75;;;24.70;50.97
7532;BME280;3807;49.030;8.714;2022-08-19T04:02:12;98858.19;;;24.65;51.48
7532;BME280;3807;49.030;8.714;2022-08-19T04:04:39;98856.53;;;24.64;51.03
7532;BME280;3807;49.030;8.714;2022-08-19T04:07:05;98861.75;;;24.64;51.04
7532;BME280;3807;49.030;8.714;2022-08-19T04:09:32;98862.03;;;24.61;51.05
7532;BME280;3807;49.030;8.714;2022-08-19T04:11:58;98868.38;;;24.59;51.10
7532;BME280;3807;49.030;8.714;2022-08-19T04:14:27;98879.91;;;24.56;51.22
7532;BME280;3807;49.030;8.714;2022-08-19T04:16:54;98877.00;;;24.59;51.10
7532;BME280;3807;49.030;8.714;2022-08-19T04:19:20;98889.53;;;24.56;51.12
7532;BME280;3807;49.030;8.714;2022-08-19T04:21:49;98889.00;;;24.52;51.21
7532;BME280;3807;49.030;8.714;2022-08-19T04:24:15;98882.31;;;24.50;51.27
7532;BME280;3807;49.030;8.714;2022-08-19T04:26:42;98891.44;;;24.54;51.19
7532;BME280;3807;49.030;8.714;2022-08-19T04:29:12;98881.31;;;24.51;51.28
7532;BME280;3807;49.030;8.714;2022-08-19T04:31:39;98882.59;;;24.46;51.29
7532;BME280;3807;49.030;8.714;2022-08-19T04:34:08;98877.56;;;24.45;51.39
7532;BME280;3807;49.030;8.714;2022-08-19T04:36:36;98876.75;;;24.44;51.47
7532;BME280;3807;49.030;8.714;2022-08-19T04:39:06;98879.66;;;24.41;51.43
7532;BME280;3807;49.030;8.714;2022-08-19T04:41:32;98888.84;;;24.36;51.70
7532;BME280;3807;49.030;8.714;2022-08-19T04:44:17;98888.00;;;24.35;51.53
7532;BME280;3807;49.030;8.714;2022-08-19T04:46:47;98885.56;;;24.34;51.69
7532;BME280;3807;49.030;8.714;2022-08-19T04:49:19;98889.94;;;24.33;51.58
7532;BME280;3807;49.030;8.714;2022-08-19T04:51:46;98886.16;;;24.28;51.83
7532;BME280;3807;49.030;8.714;2022-08-19T04:54:16;98882.75;;;24.27;52.14
7532;BME280;3807;49.030;8.714;2022-08-19T04:56:42;98876.88;;;24.25;51.88
7532;BME280;3807;49.030;8.714;2022-08-19T04:59:07;98882.53;;;24.20;52.59
7532;BME280;3807;49.030;8.714;2022-08-19T05:01:33;98892.47;;;24.25;51.81
7532;BME280;3807;49.030;8.714;2022-08-19T05:04:02;98889.06;;;24.24;51.88
7532;BME280;3807;49.030;8.714;2022-08-19T05:06:30;98892.66;;;24.23;51.68
7532;BME280;3807;49.030;8.714;2022-08-19T05:08:58;98882.22;;;24.23;52.10
7532;BME280;3807;49.030;8.714;2022-08-19T05:11:26;98888.84;;;24.18;52.45
7532;BME280;3807;49.030;8.714;2022-08-19T05:13:53;98880.13;;;24.09;52.50
7532;BME280;3807;49.030;8.714;2022-08-19T05:16:21;98880.22;;;24.17;52.26
7532;BME280;3807;49.030;8.714;2022-08-19T05:18:48;98887.13;;;24.09;52.40
7532;BME280;3807;49.030;8.714;2022-08-19T05:21:33;98893.75;;;24.03;52.62
7532;BME280;3807;49.030;8.714;2022-08-19T05:24:17;98897.91;;;24.14;52.31
7532;BME280;3807;49.030;8.714;2022-08-19T05:26:46;98894.78;;;24.10;52.49
7532;BME280;3807;49.030;8.714;2022-08-19T05:29:14;98904.16;;;24.03;52.63
7532;BME280;3807;49.030;8.714;2022-08-19T05:31:40;98907.12;;;24.08;52.45
7532;BME280;3807;49.030;8.714;2022-08-19T05:34:06;98914.03;;;23.99;52.71
7532;BME280;3807;49.030;8.714;2022-08-19T05:36:38;98921.75;;;24.09;52.25
7532;BME280;3807;49.030;8.714;2022-08-19T05:39:09;98930.53;;;24.08;52.37
7532;BME280;3807;49.030;8.714;2022-08-19T05:41:35;98930.16;;;24.03;52.68
7532;BME280;3807;49.030;8.714;2022-08-19T05:44:03;98935.94;;;23.97;52.69
7532;BME280;3807;49.030;8.714;2022-08-19T05:46:31;98949.19;;;24.04;52.57
7532;BME280;3807;49.030;8.714;2022-08-19T05:48:57;98953.41;;;24.05;52.55
7532;BME280;3807;49.030;8.714;2022-08-19T05:51:23;98947.41;;;24.04;52.43
7532;BME280;3807;49.030;8.714;2022-08-19T05:53:49;98958.78;;;24.03;52.54
7532;BME280;3807;49.030;8.714;2022-08-19T05:56:16;98962.19;;;24.04;52.36
7532;BME280;3807;49.030;8.714;2022-08-19T05:58:43;98963.00;;;24.04;52.60
7532;BME280;3807;49.030;8.714;2022-08-19T06:01:12;98968.91;;;24.06;52.29
7532;BME280;3807;49.030;8.714;2022-08-19T06:03:38;98971.06;;;24.11;52.23
7532;BME280;3807;49.030;8.714;2022-08-19T06:06:06;98978.47;;;24.06;52.47
7532;BME280;3807;49.030;8.714;2022-08-19T06:08:33;98975.03;;;24.05;52.22
7532;BME280;3807;49.030;8.714;2022-08-19T06:11:58;98973.66;;;24.11;52.32
7532;BME280;3807;49.030;8.714;2022-08-19T06:14:01;98968.75;;;24.08;52.30
7532;BME280;3807;49.030;8.714;2022-08-19T06:16:27;98968.78;;;23.98;52.88
7532;BME280;3807;49.030;8.714;2022-08-19T06:18:55;98972.97;;;24.09;52.57
7532;BME280;3807;49.030;8.714;2022-08-19T06:21:24;98968.97;;;24.14;52.21
7532;BME280;3807;49.030;8.714;2022-08-19T06:23:51;98968.22;;;24.04;52.80
7532;BME280;3807;49.030;8.714;2022-08-19T06:26:17;98968.25;;;24.22;52.54
7532;BME280;3807;49.030;8.714;2022-08-19T06:28:43;98966.16;;;24.25;52.47
7532;BME280;3807;49.030;8.714;2022-08-19T06:31:13;98971.66;;;24.22;52.45
7532;BME280;3807;49.030;8.714;2022-08-19T06:33:40;98965.50;;;24.23;52.83
7532;BME280;3807;49.030;8.714;2022-08-19T06:36:06;98971.66;;;24.22;52.68
7532;BME280;3807;49.030;8.714;2022-08-19T06:38:31;98973.44;;;24.22;52.62
7532;BME280;3807;49.030;8.714;2022-08-19T06:41:05;98978.53;;;24.23;53.05
7532;BME280;3807;49.030;8.714;2022-08-19T06:43:30;98970.56;;;24.25;52.71
7532;BME280;3807;49.030;8.714;2022-08-19T06:45:56;98979.09;;;24.17;52.99
7532;BME280;3807;49.030;8.714;2022-08-19T06:48:22;98975.81;;;24.15;52.94
7532;BME280;3807;49.030;8.714;2022-08-19T06:50:47;98969.22;;;24.21;52.68
7532;BME280;3807;49.030;8.714;2022-08-19T06:53:15;98965.69;;;24.12;53.00
7532;BME280;3807;49.030;8.714;2022-08-19T06:55:40;98968.25;;;24.22;52.73
7532;BME280;3807;49.030;8.714;2022-08-19T06:58:06;98971.13;;;24.19;52.80
7532;BME280;3807;49.030;8.714;2022-08-19T07:00:32;98966.84;;;24.28;52.78
7532;BME280;3807;49.030;8.714;2022-08-19T07:02:57;98970.50;;;24.35;52.54
7532;BME280;3807;49.030;8.714;2022-08-19T07:05:23;98971.66;;;24.22;52.61
7532;BME280;3807;49.030;8.714;2022-08-19T07:07:49;98976.56;;;24.25;52.62
7532;BME280;3807;49.030;8.714;2022-08-19T07:10:14;98977.91;;;24.30;52.41
7532;BME280;3807;49.030;8.714;2022-08-19T07:12:40;98980.66;;;24.28;52.47
7532;BME280;3807;49.030;8.714;2022-08-19T07:15:06;98981.94;;;24.24;53.28
7532;BME280;3807;49.030;8.714;2022-08-19T07:17:33;98982.59;;;24.26;52.69
7532;BME280;3807;49.030;8.714;2022-08-19T07:20:03;98980.37;;;24.31;52.56
7532;BME280;3807;49.030;8.714;2022-08-19T07:22:28;98977.09;;;24.29;52.81
7532;BME280;3807;49.030;8.714;2022-08-19T07:24:54;98979.22;;;24.16;53.27
7532;BME280;3807;49.030;8.714;2022-08-19T07:27:19;98978.88;;;24.11;53.60
7532;BME280;3807;49.030;8.714;2022-08-19T07:29:45;98984.53;;;24.24;53.02
7532;BME280;3807;49.030;8.714;2022-08-19T07:32:10;98987.28;;;24.22;53.21
7532;BME280;3807;49.030;8.714;2022-08-19T07:34:36;98984.91;;;24.29;53.03
7532;BME280;3807;49.030;8.714;2022-08-19T07:37:04;98981.84;;;24.34;53.05
7532;BME280;3807;49.030;8.714;2022-08-19T07:39:32;98986.09;;;24.35;52.87
7532;BME280;3807;49.030;8.714;2022-08-19T07:41:59;98977.03;;;24.39;52.87
7532;BME280;3807;49.030;8.714;2022-08-19T07:44:26;98981.81;;;24.43;52.74
7532;BME280;3807;49.030;8.714;2022-08-19T07:46:54;98983.59;;;24.43;52.52
7532;BME280;3807;49.030;8.714;2022-08-19T07:49:21;98993.38;;;24.41;52.78
7532;BME280;3807;49.030;8.714;2022-08-19T07:51:52;98993.72;;;24.46;52.94
7532;BME280;3807;49.030;8.714;2022-08-19T07:54:20;98993.28;;;24.51;52.56
7532;BME280;3807;49.030;8.714;2022-08-19T07:56:46;98996.81;;;24.32;53.00
7532;BME280;3807;49.030;8.714;2022-08-19T07:59:12;98992.31;;;24.52;52.45
7532;BME280;3807;49.030;8.714;2022-08-19T08:01:38;98991.84;;;24.38;53.08
7532;BME280;3807;49.030;8.714;2022-08-19T08:04:06;98995.06;;;24.50;52.61
7532;BME280;3807;49.030;8.714;2022-08-19T08:06:52;98994.25;;;24.50;52.60
7532;BME280;3807;49.030;8.714;2022-08-19T08:09:39;98982.63;;;24.44;52.56
7532;BME280;3807;49.030;8.714;2022-08-19T08:12:08;98988.47;;;24.56;52.53
7532;BME280;3807;49.030;8.714;2022-08-19T08:14:40;98990.59;;;24.60;52.36
7532;BME280;3807;49.030;8.714;2022-08-19T08:17:08;98997.59;;;24.60;52.36
7532;BME280;3807;49.030;8.714;2022-08-19T08:19:34;98991.28;;;24.62;52.18
7532;BME280;3807;49.030;8.714;2022-08-19T08:22:00;98989.66;;;24.79;51.95
7532;BME280;3807;49.030;8.714;2022-08-19T08:24:27;98982.25;;;24.75;52.37
7532;BME280;3807;49.030;8.714;2022-08-19T08:26:53;98986.66;;;24.74;52.48
7532;BME280;3807;49.030;8.714;2022-08-19T08:29:19;98992.59;;;24.84;51.76
7532;BME280;3807;49.030;8.714;2022-08-19T08:31:45;98998.62;;;24.85;51.94
7532;BME280;3807;49.030;8.714;2022-08-19T08:34:12;99001.28;;;24.93;51.56
7532;BME280;3807;49.030;8.714;2022-08-19T08:36:40;99004.56;;;24.95;52.48
7532;BME280;3807;49.030;8.714;2022-08-19T08:39:11;99005.00;;;25.08;51.19
7532;BME280;3807;49.030;8.714;2022-08-19T08:41:58;99012.38;;;24.95;52.44
7532;BME280;3807;49.030;8.714;2022-08-19T08:47:04;99007.69;;;24.99;52.33
7532;BME280;3807;49.030;8.714;2022-08-19T08:49:50;99007.03;;;24.97;52.87
7532;BME280;3807;49.030;8.714;2022-08-19T08:52:30;99001.75;;;24.88;53.29
7532;BME280;3807;49.030;8.714;2022-08-19T08:55:04;99002.19;;;25.02;52.74
7532;BME280;3807;49.030;8.714;2022-08-19T09:00:22;99012.91;;;25.16;51.47
7532;BME280;3807;49.030;8.714;2022-08-19T09:02:49;99014.31;;;25.29;51.20
7532;BME280;3807;49.030;8.714;2022-08-19T09:05:14;99021.88;;;25.40;51.57
7532;BME280;3807;49.030;8.714;2022-08-19T09:07:52;99020.06;;;25.40;51.90
7532;BME280;3807;49.030;8.714;2022-08-19T09:10:29;99022.03;;;25.38;51.65
7532;BME280;3807;49.030;8.714;2022-08-19T09:13:48;99013.94;;;25.50;51.60
7532;BME280;3807;49.030;8.714;2022-08-19T09:16:20;99014.03;;;25.40;51.86
7532;BME280;3807;49.030;8.714;2022-08-19T09:18:53;99014.34;;;25.63;51.19
7532;BME280;3807;49.030;8.714;2022-08-19T09:21:20;99008.47;;;25.61;51.46
7532;BME280;3807;49.030;8.714;2022-08-19T09:23:48;99007.56;;;25.78;51.05
7532;BME280;3807;49.030;8.714;2022-08-19T09:26:15;99004.09;;;25.70;51.43
7532;BME280;3807;49.030;8.714;2022-08-19T09:28:45;99013.91;;;25.76;51.11
7532;BME280;3807;49.030;8.714;2022-08-19T09:31:12;98997.94;;;25.79;50.97
7532;BME280;3807;49.030;8.714;2022-08-19T09:33:38;99003.06;;;25.88;50.78
7532;BME280;3807;49.030;8.714;2022-08-19T09:36:08;98997.19;;;25.86;50.94
7532;BME280;3807;49.030;8.714;2022-08-19T09:38:36;98995.37;;;25.87;50.81
7532;BME280;3807;49.030;8.714;2022-08-19T09:41:05;98996.09;;;25.97;50.58
7532;BME280;3807;49.030;8.714;2022-08-19T09:43:32;98994.47;;;25.96;50.51
7532;BME280;3807;49.030;8.714;2022-08-19T09:45:59;99001.66;;;26.02;50.31
7532;BME280;3807;49.030;8.714;2022-08-19T09:48:25;99004.59;;;25.99;50.39
7532;BME280;3807;49.030;8.714;2022-08-19T09:50:51;99005.09;;;26.11;50.20
7532;BME280;3807;49.030;8.714;2022-08-19T09:53:16;98996.34;;;26.20;49.81
7532;BME280;3807;49.030;8.714;2022-08-19T09:55:43;98999.62;;;26.22;49.73
7532;BME280;3807;49.030;8.714;2022-08-19T09:58:08;99002.72;;;26.26;49.54
7532;BME280;3807;49.030;8.714;2022-08-19T10:00:37;99006.81;;;26.36;49.27
7532;BME280;3807;49.030;8.714;2022-08-19T10:03:02;99004.53;;;26.42;49.35
7532;BME280;3807;49.030;8.714;2022-08-19T10:05:28;99011.72;;;26.40;49.32
7532;BME280;3807;49.030;8.714;2022-08-19T10:08:11;99008.94;;;26.33;49.30
7532;BME280;3807;49.030;8.714;2022-08-19T10:10:37;99011.13;;;26.54;48.81
7532;BME280;3807;49.030;8.714;2022-08-19T10:13:02;99011.94;;;26.54;48.71
7532;BME280;3807;49.030;8.714;2022-08-19T10:15:29;99004.09;;;26.71;48.75
7532;BME280;3807;49.030;8.714;2022-08-19T10:17:55;99003.78;;;26.90;47.94
7532;BME280;3807;49.030;8.714;2022-08-19T10:20:20;99002.50;;;26.78;48.38
7532;BME280;3807;49.030;8.714;2022-08-19T10:22:47;98992.38;;;26.99;47.64
7532;BME280;3807;49.030;8.714;2022-08-19T10:25:12;98990.91;;;27.13;47.30
7532;BME280;3807;49.030;8.714;2022-08-19T10:27:40;98991.06;;;27.20;47.13
7532;BME280;3807;49.030;8.714;2022-08-19T10:30:06;98991.56;;;27.23;47.03
7532;BME280;3807;49.030;8.714;2022-08-19T10:32:31;98990.06;;;27.29;46.82
7532;BME280;3807;49.030;8.714;2022-08-19T10:34:57;98988.88;;;27.40;46.80
7532;BME280;3807;49.030;8.714;2022-08-19T10:37:22;98990.06;;;27.21;47.16
7532;BME280;3807;49.030;8.714;2022-08-19T10:39:47;98992.34;;;27.32;46.78
7532;BME280;3807;49.030;8.714;2022-08-19T10:42:13;98996.25;;;27.44;46.37
7532;BME280;3807;49.030;8.714;2022-08-19T10:44:39;98989.31;;;27.60;45.62
7532;BME280;3807;49.030;8.714;2022-08-19T10:47:05;98987.16;;;27.71;45.57
7532;BME280;3807;49.030;8.714;2022-08-19T10:49:31;98983.38;;;27.82;45.35
7532;BME280;3807;49.030;8.714;2022-08-19T10:51:57;98985.03;;;27.67;45.37
7532;BME280;3807;49.030;8.714;2022-08-19T10:54:41;98983.06;;;27.77;46.03
7532;BME280;3807;49.030;8.714;2022-08-19T10:57:25;98970.75;;;27.86;45.04
7532;BME280;3807;49.030;8.714;2022-08-19T10:59:55;98978.41;;;27.95;44.87
7532;BME280;3807;49.030;8.714;2022-08-19T11:02:21;98969.59;;;27.96;44.80
7532;BME280;3807;49.030;8.714;2022-08-19T11:04:46;98962.16;;;27.77;45.63
7532;BME280;3807;49.030;8.714;2022-08-19T11:07:14;98950.34;;;27.81;44.61
7532;BME280;3807;49.030;8.714;2022-08-19T11:09:41;98958.72;;;28.08;44.36
7532;BME280;3807;49.030;8.714;2022-08-19T11:12:08;98957.50;;;28.18;43.95
7532;BME280;3807;49.030;8.714;2022-08-19T11:14:35;98943.34;;;28.27;44.08
7532;BME280;3807;49.030;8.714;2022-08-19T11:17:01;98944.44;;;28.41;43.59
7532;BME280;3807;49.030;8.714;2022-08-19T11:19:27;98939.56;;;28.38;43.95
7532;BME280;3807;49.030;8.714;2022-08-19T11:21:52;98938.38;;;28.41;43.74
7532;BME280;3807;49.030;8.714;2022-08-19T11:24:22;98937.62;;;28.55;43.62
7532;BME280;3807;49.030;8.714;2022-08-19T11:26:50;98943.16;;;28.60;43.26
7532;BME280;3807;49.030;8.714;2022-08-19T11:29:17;98943.28;;;28.67;43.44
7532;BME280;3807;49.030;8.714;2022-08-19T11:31:45;98938.31;;;28.72;42.95
7532;BME280;3807;49.030;8.714;2022-08-19T11:34:14;98949.81;;;28.86;42.33
7532;BME280;3807;49.030;8.714;2022-08-19T11:36:43;98946.25;;;29.02;42.01
7532;BME280;3807;49.030;8.714;2022-08-19T11:39:11;98945.31;;;28.94;42.12
7532;BME280;3807;49.030;8.714;2022-08-19T11:41:37;98941.31;;;28.84;42.40
7532;BME280;3807;49.030;8.714;2022-08-19T11:44:03;98953.12;;;29.03;42.25
7532;BME280;3807;49.030;8.714;2022-08-19T11:46:30;98947.63;;;29.12;42.08
7532;BME280;3807;49.030;8.714;2022-08-19T11:48:59;98953.22;;;29.24;41.90
7532;BME280;3807;49.030;8.714;2022-08-19T11:51:26;98948.00;;;29.24;41.84
7532;BME280;3807;49.030;8.714;2022-08-19T11:53:56;98955.69;;;29.40;41.58
7532;BME280;3807;49.030;8.714;2022-08-19T11:56:22;98954.88;;;29.55;41.49
7532;BME280;3807;49.030;8.714;2022-08-19T11:58:49;98957.03;;;29.51;41.24
7532;BME280;3807;49.030;8.714;2022-08-19T12:01:17;98951.50;;;29.76;40.98
7532;BME280;3807;49.030;8.714;2022-08-19T12:03:44;98961.28;;;29.82;40.61
7532;BME280;3807;49.030;8.714;2022-08-19T12:06:13;98963.22;;;29.95;40.02
7532;BME280;3807;49.030;8.714;2022-08-19T12:08:40;98968.12;;;29.98;40.00
7532;BME280;3807;49.030;8.714;2022-08-19T12:11:06;98962.19;;;29.89;40.68
7532;BME280;3807;49.030;8.714;2022-08-19T12:13:35;98968.56;;;30.01;40.72
7532;BME280;3807;49.030;8.714;2022-08-19T12:16:08;98974.16;;;30.13;40.03
7532;BME280;3807;49.030;8.714;2022-08-19T12:18:35;98960.44;;;30.32;39.75
7532;BME280;3807;49.030;8.714;2022-08-19T12:21:01;98955.81;;;30.34;39.35
7532;BME280;3807;49.030;8.714;2022-08-19T12:23:26;98955.44;;;30.37;39.84
7532;BME280;3807;49.030;8.714;2022-08-19T12:25:51;98955.09;;;30.47;39.68
7532;BME280;3807;49.030;8.714;2022-08-19T12:28:22;98954.31;;;30.47;39.44
7532;BME280;3807;49.030;8.714;2022-08-19T12:30:49;98957.25;;;30.58;39.08
7532;BME280;3807;49.030;8.714;2022-08-19T12:33:17;98959.00;;;30.73;39.16
7532;BME280;3807;49.030;8.714;2022-08-19T12:35:44;98952.50;;;30.69;38.80
7532;BME280;3807;49.030;8.714;2022-08-19T12:38:12;98949.66;;;30.70;38.06
7532;BME280;3807;49.030;8.714;2022-08-19T12:40:37;98944.66;;;30.75;38.79
7532;BME280;3807;49.030;8.714;2022-08-19T12:43:05;98946.53;;;30.81;38.59
7532;BME280;3807;49.030;8.714;2022-08-19T12:45:30;98946.16;;;30.84;38.61
7532;BME280;3807;49.030;8.714;2022-08-19T12:47:56;98938.53;;;30.90;36.90
7532;BME280;3807;49.030;8.714;2022-08-19T12:50:21;98939.50;;;30.89;38.53
7532;BME280;3807;49.030;8.714;2022-08-19T12:52:47;98937.34;;;30.99;38.63
7532;BME280;3807;49.030;8.714;2022-08-19T12:55:13;98933.53;;;31.01;37.96
7532;BME280;3807;49.030;8.714;2022-08-19T12:57:39;98937.50;;;30.91;38.72
7532;BME280;3807;49.030;8.714;2022-08-19T13:00:25;98928.81;;;30.90;37.45
7532;BME280;3807;49.030;8.714;2022-08-19T13:02:51;98933.31;;;31.03;37.36
7532;BME280;3807;49.030;8.714;2022-08-19T13:05:19;98923.06;;;31.08;37.06
7532;BME280;3807;49.030;8.714;2022-08-19T13:07:47;98937.44;;;31.12;36.83
7532;BME280;3807;49.030;8.714;2022-08-19T13:10:17;98939.16;;;30.98;36.83
7532;BME280;3807;49.030;8.714;2022-08-19T13:12:48;98929.31;;;31.07;37.07
7532;BME280;3807;49.030;8.714;2022-08-19T13:15:15;98932.59;;;31.16;36.04
7532;BME280;3807;49.030;8.714;2022-08-19T13:17:45;98932.25;;;31.25;36.51
7532;BME280;3807;49.030;8.714;2022-08-19T13:20:14;98934.47;;;31.22;36.58
7532;BME280;3807;49.030;8.714;2022-08-19T13:22:39;98939.22;;;31.33;36.12
7532;BME280;3807;49.030;8.714;2022-08-19T13:25:06;98932.38;;;31.39;36.39
7532;BME280;3807;49.030;8.714;2022-08-19T13:27:32;98941.94;;;31.18;36.18
7532;BME280;3807;49.030;8.714;2022-08-19T13:29:57;98952.06;;;31.21;36.66
7532;BME280;3807;49.030;8.714;2022-08-19T13:32:42;98944.53;;;31.46;35.60